View Single Post
Old 19th Mar 2016, 04:33   #18 (permalink)
Iron Eagle
 
Join Date: Jul 2006
Location: up in the sky
Posts: 13
this is the actual weather reported at the time of accident

URRR 190300Z 25011G18MPS 3900 -SHRA BKN011 BKN030CB OVC100 06/04 Q0997 R22/290046 TEMPO 25017G25MPS 1000 SHRA BR SCT003 BKN020CB RMK QFE740/0987

URRR 190230Z 25011G16MPS 4700 -SHRA BKN013 BKN031CB OVC100 06/04 Q0997 RESHRA R22/290046 TEMPO 25017G25MPS 1000 SHRA BR SCT003 BKN020CB RMK QFE740/0987

URRR 190200Z 25011MPS 4600 1700SW SHRA BKN014 BKN032CB OVC100 06/04 Q0997 R22/290046 TEMPO 25017G25MPS 1000 SHRA BR SCT003 BKN020CB RMK QFE740/0987
Iron Eagle is offline   Reply With Quote